Winter, WI (54896)

5:49 AM CDT on April 26, 2017 (GMT -0500)
Lawn next to open field | | Change Station

Elev 1342 ft 45.85 °N, 90.97 °W | Updated 15 seconds ago

Rain
Rain
33.8 °F
Feels Like 34 °F
N
0.9
Wind Variable Wind from NNE
Gusts 2.5 mph

Today
High -- | Low -- °F
--% Chance of Precip.
Yesterday
High -- | Low -- °F
Precip. -- in
Pressure 29.49 in
Visibility 10.0 miles
Clouds Overcast 800 ft
Windchill 34 °F
Dew Point 33 °F
Humidity 98%
Rainfall 0.50 in
Snow Depth Not available.
5:58 AM 8:05 PM
Waning Crescent, 0% visible
METAR KRCX 261035Z AUTO 02008G17KT 10SM RA OVC008 03/03 A2949 RMK AO2 P0001 T00330025
Pressure 29.49 in
Visibility 10.0 miles
Clouds Overcast 800 ft
Windchill 34 °F
Dew Point 33 °F
Humidity 98%
Rainfall 0.50 in
Snow Depth Not available.
5:58 AM 8:05 PM
Waning Crescent, 0% visible
METAR KRCX 261035Z AUTO 02008G17KT 10SM RA OVC008 03/03 A2949 RMK AO2 P0001 T00330025

Get Severe Weather Alerts

Thanks for signing up!

Be on the lookout for a verification email in your inbox.

You'll start receiving the daily forecast at 8 AM.

×

10-Day Weather Forecast

Almanac

Astronomy

Apr. 26, 2017 Rise Set
Actual Time
Civil Twilight
Nautical Twilight
Astronomical Twilight
Moon
Length of Visible Light
Length of Day
Tomorrow will be .
, % of the Moon is Illuminated

Today's Extremes

State Highs State Lows

Community

WunderPhotos

WunderBlog® & News

Nearby

Air Quality

  Air Quality AQ Index Pollutant
Not available.

Snow Depth

Station Depth Elevation

Earthquake Activity

City Distance Mag. Time & Date
Minimum magnitude displayed is 2.5.

Coastal Water Temperatures

Place Temperature

Stations

Nearby Weather Stations

Station Location Temp. Windchill Dew Point Humidity Wind Precip. Elev Updated Type
                   

Watches & Warnings

There are currently no watches in effect.